createdAt,value
2023-04-16T00:00:48.766Z,39.97
2023-04-16T00:05:10.614Z,41.70
2023-04-16T00:09:32.714Z,40.70
2023-04-16T00:13:54.716Z,41.08
2023-04-16T00:18:16.896Z,42.00
2023-04-16T00:22:38.825Z,39.75
2023-04-16T00:27:01.837Z,39.95
2023-04-16T00:31:33.536Z,43.92
2023-04-16T00:35:55.975Z,49.60
2023-04-16T00:40:17.915Z,50.92
2023-04-16T00:44:39.915Z,46.83
2023-04-16T00:49:02.856Z,44.35
2023-04-16T00:53:25.715Z,43.58
2023-04-16T00:57:48.385Z,44.28
2023-04-16T01:02:10.744Z,47.75
2023-04-16T01:06:33.017Z,49.05
2023-04-16T01:10:54.838Z,42.25
2023-04-16T01:15:17.070Z,46.13
2023-04-16T01:19:39.009Z,46.90
2023-04-16T01:24:05.352Z,45.00
2023-04-16T01:28:28.457Z,44.78
2023-04-16T01:32:50.639Z,46.08
2023-04-16T01:37:13.265Z,42.25
2023-04-16T01:41:35.262Z,42.67
2023-04-16T01:46:27.390Z,44.78
2023-04-16T01:50:49.455Z,40.97
2023-04-16T01:55:11.921Z,41.00
2023-04-16T01:59:33.839Z,44.78
2023-04-16T02:03:57.127Z,43.22
2023-04-16T02:08:19.278Z,42.53
2023-04-16T02:12:42.170Z,38.03
2023-04-16T02:17:04.899Z,37.55
2023-04-16T02:21:32.799Z,35.92
2023-04-16T02:25:54.941Z,37.53
2023-04-16T02:30:17.915Z,39.20
2023-04-16T02:34:40.368Z,37.08
2023-04-16T02:39:02.811Z,36.80
2023-04-16T02:43:24.696Z,41.88
2023-04-16T02:47:46.943Z,38.45
2023-04-16T02:52:09.271Z,41.03
2023-04-16T02:56:31.510Z,40.33
2023-04-16T03:00:54.860Z,39.53
2023-04-16T03:05:17.514Z,38.00
2023-04-16T03:09:39.815Z,39.97
2023-04-16T03:14:02.075Z,39.22
2023-04-16T03:18:24.414Z,37.25
2023-04-16T03:22:47.900Z,34.90
2023-04-16T03:27:09.814Z,39.13
2023-04-16T03:31:32.392Z,35.92
2023-04-16T03:35:59.254Z,38.63
2023-04-16T03:40:25.006Z,38.47
2023-04-16T03:44:48.416Z,35.90
2023-04-16T03:49:12.252Z,36.28
2023-04-16T03:53:34.400Z,35.03
2023-04-16T03:57:57.621Z,38.40
2023-04-16T04:02:20.052Z,35.80
2023-04-16T04:06:42.829Z,39.05
2023-04-16T04:11:05.585Z,39.85
2023-04-16T04:15:30.156Z,35.17
2023-04-16T04:20:01.357Z,39.75
2023-04-16T04:24:28.980Z,32.88
2023-04-16T04:28:51.810Z,31.85
2023-04-16T04:33:14.521Z,33.40
2023-04-16T04:37:37.538Z,34.67
2023-04-16T04:42:09.513Z,31.55
2023-04-16T04:46:31.502Z,33.88
2023-04-16T04:50:54.130Z,30.05
2023-04-16T04:55:16.288Z,35.05
2023-04-16T04:59:38.150Z,36.78
2023-04-16T05:04:00.726Z,35.30
2023-04-16T05:08:22.950Z,32.25
2023-04-16T05:12:48.820Z,32.83
2023-04-16T05:17:11.226Z,30.58
2023-04-16T05:21:33.940Z,28.08
2023-04-16T05:25:55.848Z,27.00
2023-04-16T05:30:17.785Z,27.60
2023-04-16T05:34:39.786Z,27.17
2023-04-16T05:39:01.949Z,25.90
2023-04-16T05:43:23.954Z,23.80
2023-04-16T05:47:46.372Z,24.73
2023-04-16T05:52:08.407Z,22.40
2023-04-16T05:56:30.676Z,23.60
2023-04-16T06:00:52.733Z,21.08
2023-04-16T06:05:15.243Z,25.30
2023-04-16T06:09:37.479Z,22.42
2023-04-16T06:13:59.950Z,33.83
2023-04-16T06:18:22.592Z,21.42
2023-04-16T06:22:44.727Z,23.27
2023-04-16T06:27:06.812Z,22.67
2023-04-16T06:31:30.014Z,22.33
2023-04-16T06:35:52.804Z,21.58
2023-04-16T06:40:15.130Z,21.77
2023-04-16T06:44:37.086Z,38.85
2023-04-16T06:48:59.209Z,21.15
2023-04-16T06:53:21.188Z,18.58
2023-04-16T06:57:46.280Z,21.42
2023-04-16T07:02:11.560Z,22.17
2023-04-16T07:06:34.027Z,20.40
2023-04-16T07:10:56.082Z,21.45
2023-04-16T07:15:19.949Z,26.95
2023-04-16T07:19:42.215Z,22.17
2023-04-16T07:24:04.759Z,22.50
2023-04-16T07:28:28.164Z,19.90
2023-04-16T07:32:52.215Z,19.00
2023-04-16T07:37:14.686Z,21.85
2023-04-16T07:41:37.336Z,20.98
2023-04-16T07:45:59.433Z,19.85
2023-04-16T07:50:21.615Z,22.67
2023-04-16T07:54:43.670Z,22.25
2023-04-16T07:59:21.114Z,23.63
2023-04-16T08:03:45.790Z,21.23
2023-04-16T08:08:08.359Z,32.72
2023-04-16T08:12:31.432Z,22.05
2023-04-16T08:16:53.537Z,23.40
2023-04-16T08:21:15.652Z,23.88
2023-04-16T08:25:37.675Z,25.38
2023-04-16T08:30:00.244Z,27.35
2023-04-16T08:34:22.638Z,25.67
2023-04-16T08:38:44.688Z,23.52
2023-04-16T08:43:12.507Z,23.20
2023-04-16T08:47:39.031Z,23.30
2023-04-16T08:52:02.724Z,22.05
2023-04-16T08:56:26.044Z,21.05
2023-04-16T09:00:49.169Z,22.38
2023-04-16T09:05:14.654Z,23.55
2023-04-16T09:09:39.898Z,21.55
2023-04-16T09:14:02.762Z,22.25
2023-04-16T09:18:25.424Z,21.38
2023-04-16T09:22:47.449Z,21.77
2023-04-16T09:27:10.072Z,19.83
2023-04-16T09:31:35.115Z,21.65
2023-04-16T09:35:58.045Z,20.00
2023-04-16T09:40:26.615Z,19.80
2023-04-16T09:44:51.496Z,16.33
2023-04-16T09:49:18.782Z,17.80
2023-04-16T09:53:41.001Z,19.92
2023-04-16T09:58:03.150Z,23.45
2023-04-16T10:02:29.842Z,18.73
2023-04-16T10:07:06.802Z,18.58
2023-04-16T10:11:29.737Z,21.17
2023-04-16T10:15:52.216Z,18.75
2023-04-16T10:20:17.270Z,18.10
2023-04-16T10:24:41.352Z,15.52
2023-04-16T10:29:04.317Z,22.63
2023-04-16T10:33:35.936Z,21.63
2023-04-16T10:37:58.383Z,18.33
2023-04-16T10:42:20.617Z,15.32
2023-04-16T10:46:45.282Z,13.15
2023-04-16T10:51:07.196Z,13.63
2023-04-16T10:55:34.152Z,12.27
2023-04-16T10:59:56.987Z,13.07
2023-04-16T11:04:22.557Z,11.88
2023-04-16T11:13:13.667Z,15.48
2023-04-16T11:17:47.511Z,13.60
2023-04-16T11:22:17.532Z,15.48
2023-04-16T11:26:39.917Z,14.55
2023-04-16T11:31:12.751Z,15.40
2023-04-16T11:35:35.792Z,12.77
2023-04-16T11:39:58.306Z,16.73
2023-04-16T11:44:26.650Z,11.50
2023-04-16T11:48:51.320Z,11.25
2023-04-16T11:53:13.662Z,10.70
2023-04-16T11:57:35.897Z,11.65
2023-04-16T12:01:58.175Z,11.48
2023-04-16T12:06:20.425Z,11.73
2023-04-16T12:10:56.144Z,13.10
2023-04-16T12:15:18.338Z,10.75
2023-04-16T12:19:55.728Z,12.30
2023-04-16T12:24:24.097Z,10.57
2023-04-16T12:28:46.399Z,14.20
2023-04-16T12:33:19.448Z,17.95
2023-04-16T12:37:41.860Z,10.32
2023-04-16T12:42:05.587Z,10.07
2023-04-16T12:46:27.553Z,13.73
2023-04-16T12:50:49.533Z,10.38
2023-04-16T12:55:12.217Z,11.70
2023-04-16T12:59:34.128Z,10.30
2023-04-16T13:03:56.842Z,13.65
2023-04-16T13:08:19.045Z,13.98
2023-04-16T13:12:41.338Z,9.55
2023-04-16T13:17:04.209Z,12.90
2023-04-16T13:21:27.404Z,11.80
2023-04-16T13:25:50.660Z,17.45
2023-04-16T13:30:13.293Z,12.88
2023-04-16T13:34:35.252Z,11.25
2023-04-16T13:38:57.391Z,10.07
2023-04-16T13:43:19.644Z,9.75
2023-04-16T13:47:45.014Z,10.40
2023-04-16T13:52:07.187Z,10.52
2023-04-16T13:56:29.283Z,11.73
2023-04-16T14:00:51.378Z,12.13
2023-04-16T14:05:13.304Z,11.70
2023-04-16T14:09:35.038Z,11.82
2023-04-16T14:13:57.249Z,11.38
2023-04-16T14:18:19.444Z,12.23
2023-04-16T14:22:42.594Z,16.17
2023-04-16T14:27:04.524Z,10.23
2023-04-16T14:31:27.346Z,10.23
2023-04-16T14:35:50.655Z,9.85
2023-04-16T14:40:13.213Z,13.80
2023-04-16T14:44:35.306Z,9.60
2023-04-16T14:48:58.487Z,19.58
2023-04-16T14:53:20.417Z,10.23
2023-04-16T14:57:42.477Z,8.93
2023-04-16T15:02:04.589Z,6.65
2023-04-16T15:06:28.066Z,9.00
2023-04-16T15:10:50.819Z,13.75
2023-04-16T15:15:12.952Z,7.68
2023-04-16T15:19:35.045Z,8.05
2023-04-16T15:23:57.187Z,7.82
2023-04-16T15:28:19.242Z,9.43
2023-04-16T15:32:41.278Z,5.95
2023-04-16T15:37:03.643Z,7.13
2023-04-16T15:41:29.087Z,5.80
2023-04-16T15:45:51.028Z,6.72
2023-04-16T15:50:13.000Z,4.45
2023-04-16T15:54:35.190Z,5.40
2023-04-16T15:58:57.388Z,2.78
2023-04-16T16:03:20.388Z,2.63
2023-04-16T16:07:44.067Z,3.65
2023-04-16T16:12:06.616Z,4.57
2023-04-16T16:16:29.146Z,4.20
2023-04-16T16:20:53.050Z,3.65
2023-04-16T16:25:15.183Z,3.90
2023-04-16T16:29:37.029Z,5.78
2023-04-16T16:33:59.102Z,5.35
2023-04-16T16:38:21.409Z,5.80
2023-04-16T16:42:43.836Z,6.60
2023-04-16T16:47:06.646Z,6.55
2023-04-16T16:51:30.603Z,8.02
2023-04-16T16:55:52.485Z,7.90
2023-04-16T17:00:16.382Z,8.32
2023-04-16T17:04:38.592Z,7.68
2023-04-16T17:09:01.230Z,9.00
2023-04-16T17:13:25.307Z,10.18
2023-04-16T17:17:47.463Z,10.23
2023-04-16T17:22:09.993Z,12.18
2023-04-16T17:26:32.282Z,14.90
2023-04-16T17:30:56.313Z,14.20
2023-04-16T17:35:18.571Z,12.20
2023-04-16T17:39:40.953Z,13.05
2023-04-16T17:44:03.209Z,15.80
2023-04-16T17:48:25.874Z,20.52
2023-04-16T17:52:48.011Z,12.30
2023-04-16T17:57:10.204Z,11.63
2023-04-16T18:01:32.285Z,12.68
2023-04-16T18:05:54.808Z,13.20
2023-04-16T18:10:16.796Z,15.27
2023-04-16T18:14:44.914Z,14.50
2023-04-16T18:19:06.889Z,15.65
2023-04-16T18:23:29.148Z,18.50
2023-04-16T18:27:51.394Z,17.50
2023-04-16T18:32:13.620Z,17.77
2023-04-16T18:36:35.725Z,21.50
2023-04-16T18:40:58.454Z,19.25
2023-04-16T18:45:21.795Z,18.58
2023-04-16T18:49:44.046Z,19.77
2023-04-16T18:54:06.215Z,19.45
2023-04-16T18:58:28.243Z,20.85
2023-04-16T19:02:50.193Z,19.77
2023-04-16T19:07:12.066Z,21.15
2023-04-16T19:11:37.608Z,23.42
2023-04-16T19:16:02.351Z,23.33
2023-04-16T19:20:24.654Z,25.52
2023-04-16T19:24:47.389Z,24.80
2023-04-16T19:29:09.512Z,27.00
2023-04-16T19:33:31.840Z,25.25
2023-04-16T19:37:56.384Z,28.52
2023-04-16T19:42:18.553Z,28.35
2023-04-16T19:46:40.493Z,24.38
2023-04-16T19:51:12.367Z,26.77
2023-04-16T19:55:34.988Z,28.60
2023-04-16T19:59:57.166Z,26.35
2023-04-16T20:04:18.998Z,27.15
2023-04-16T20:08:41.039Z,27.13
2023-04-16T20:13:03.169Z,28.65
2023-04-16T20:17:25.306Z,27.85
2023-04-16T20:21:47.215Z,27.35
2023-04-16T20:26:09.685Z,24.25
2023-04-16T20:30:38.751Z,27.83
2023-04-16T20:35:02.111Z,25.52
2023-04-16T20:39:24.625Z,27.10
2023-04-16T20:43:50.170Z,26.35
2023-04-16T20:48:12.646Z,24.85
2023-04-16T20:52:34.568Z,24.08
2023-04-16T20:56:57.225Z,27.25
2023-04-16T21:01:20.945Z,26.45
2023-04-16T21:05:47.820Z,27.08
2023-04-16T21:10:11.058Z,29.35
2023-04-16T21:14:32.947Z,27.98
2023-04-16T21:18:55.925Z,26.90
2023-04-16T21:23:18.107Z,23.50
2023-04-16T21:27:40.289Z,28.60
2023-04-16T21:32:02.190Z,30.40
2023-04-16T21:36:26.676Z,29.20
2023-04-16T21:40:56.769Z,30.85
2023-04-16T21:45:19.525Z,28.85
2023-04-16T21:49:42.606Z,29.27
2023-04-16T21:54:04.451Z,26.15
2023-04-16T21:58:26.747Z,30.15
2023-04-16T22:02:48.873Z,27.75
2023-04-16T22:07:11.858Z,28.75
2023-04-16T22:11:33.944Z,30.40
2023-04-16T22:15:55.970Z,28.85
2023-04-16T22:20:18.068Z,28.88
2023-04-16T22:24:39.949Z,30.27
2023-04-16T22:29:22.949Z,26.92
2023-04-16T22:33:45.592Z,27.08
2023-04-16T22:38:08.196Z,28.83
2023-04-16T22:42:29.968Z,30.33
2023-04-16T22:46:52.209Z,29.10
2023-04-16T22:51:14.612Z,30.50
2023-04-16T22:55:37.019Z,28.15
2023-04-16T22:59:58.888Z,28.40
2023-04-16T23:04:21.177Z,30.77
2023-04-16T23:08:43.326Z,26.92
2023-04-16T23:13:05.530Z,27.05
2023-04-16T23:17:28.198Z,25.77
2023-04-16T23:21:50.126Z,24.13
2023-04-16T23:26:12.411Z,23.65
2023-04-16T23:30:34.356Z,20.98
2023-04-16T23:34:56.523Z,20.08
2023-04-16T23:39:18.425Z,20.85
2023-04-16T23:43:40.909Z,19.23
2023-04-16T23:48:03.112Z,19.95
2023-04-16T23:52:25.318Z,20.67
2023-04-16T23:56:47.556Z,21.58
